Frey Ranch - Fallon, Nevada Weather observations

Data are for observation ending at time listed.
 Day   Time    Ave.   Ave.  Ave.  Vector   Max.   Stn.    Total    Solar   Ave.  
  of    of     Air    Rel.  Wind   Wind    Wind   Baro.  Precip.   Rad.    Soil  
Year   Day     Temp.  Hum.  Speed  Dir.    Gust   Pres.                    Temp. 
2014   (PST)    F      %     mph   deg.    mph     mb.     in.     W/m2     F   
------------------------------------------------------------------------------
 256   17:40   83.3    17    0.0     0      0.0   999.0    0.00      24    77.0
 256   17:50   81.4    19    0.0     0      0.0   999.0    0.00       8    77.1
 256   18:00   80.0    17    0.6    66      2.5   999.0    0.00       3    77.1
 256   18:10   78.5    20    3.4   317      6.1   999.0    0.00       2    77.2
 256   18:20   78.1    19    2.4   308      4.2   999.0    0.00       0    77.2
 256   18:30   75.6    23    2.2   307      4.8   999.0    0.00       0    77.3
 256   18:40   75.1    22    1.4   341      5.2   999.0    0.00       0    77.4
 256   18:50   73.6    24    0.6   334      2.6   999.0    0.00       0    77.4
 256   19:00   71.5    26    0.4   335      1.5   999.0    0.00       0    77.5
 256   19:10   72.2    24    0.8   353      2.2   999.0    0.00       0    77.5
 256   19:20   72.0    24    0.5   338      2.8   999.0    0.00       0    77.6
 256   19:30   71.7    24    0.9   324      2.3   999.0    0.00       0    77.7
 256   19:40   69.8    26    1.7   324      2.7   999.0    0.00       0    77.7
 256   19:50   67.7    28    2.3   318      5.8   999.0    0.00       0    77.8
 256   20:00   68.4    26    2.8   302      4.7   999.0    0.00       0    77.8
 256   20:10   68.6    25    3.5   298      6.2   999.0    0.00       0    77.8
 256   20:20   68.6    24    3.6   296      7.0   999.0    0.00       0    77.9
 256   20:30   68.3    24    3.9   299      6.4   999.0    0.00       0    77.9
 256   20:40   67.8    25    3.9   300      7.3   999.0    0.00       0    78.0
 256   20:50   67.1    25    3.2   306      6.4   999.0    0.00       0    78.0
 256   21:00   68.3    23    4.0   314      6.9   999.0    0.00       0    78.0
 256   21:10   68.4    24    2.5   321      4.3   999.0    0.00       0    78.0
 256   21:20   68.1    25    2.4   315      4.6   999.0    0.00       0    78.1
 256   21:30   68.0    25    3.1   303      5.1   999.0    0.00       0    78.1
 256   21:40   68.1    25    2.3   300      5.3   999.0    0.00       0    78.1
 256   21:50   66.0    26    0.4   288      2.3   999.0    0.00       0    78.1
 256   22:00   62.9    29    0.7   309      2.4   999.0    0.00       0    78.1
 256   22:10   62.7    29    0.6   307      1.5   999.0    0.00       0    78.1
 256   22:20   64.0    28    1.2   307      1.5   999.0    0.00       0    78.1
 256   22:30   63.5    28    0.8   338      2.8   999.0    0.00       0    78.1
 256   22:40   60.8    31    0.8    68      4.5   999.0    0.00       0    78.1
 256   22:50   60.7    31    4.9    76      8.3   999.0    0.00       0    78.1
 256   23:00   61.6    30    2.0    58      5.6   999.0    0.00       0    78.1
 256   23:10   65.6    26    2.0    82      4.9   999.0    0.00       0    78.1
 256   23:20   64.9    27    0.5    88      1.8   999.0    0.00       0    78.1
 256   23:30   62.5    30    0.7   107      2.3   999.0    0.00       0    78.1
 256   23:40   61.2    32    1.4   111      2.3   999.0    0.00       0    78.1
 256   23:50   61.8    31    1.3   111      2.4   999.0    0.00       0    78.1
 257    0:00   62.3    31    0.0     0      0.0   999.0    0.00       0    78.1
 257    0:10   61.3    33    0.0     0      0.0   999.0    0.00       0    78.0
 257    0:20   61.6    32    1.0    53      1.7   999.0    0.00       0    78.0
 257    0:30   61.7    31    0.6    53      1.4   999.0    0.00       0    78.0
 257    0:40   62.3    30    1.0    53      1.8   999.0    0.00       0    78.0
 257    0:50   61.4    31    0.7    53      1.6   999.0    0.00       0    78.0
 257    1:00   62.1    30    0.1    53      0.9   999.0    0.00       0    77.9
 257    1:10   62.5    30    0.5    53      1.5   999.0    0.00       0    77.9
 257    1:20   62.5    30    0.4    53      1.4   999.0    0.00       0    77.9
 257    1:30   63.9    28    0.1    98      5.0   999.0    0.00       0    77.8
 257    1:40   58.7    34    3.3    85      5.7   999.0    0.00       0    77.8
 257    1:50   57.9    35    1.1    88      2.9   999.0    0.00       0    77.8
 257    2:00   57.5    37    0.9    74      1.8   999.0    0.00       0    77.8
 257    2:10   58.4    36    0.6    43      1.2   999.0    0.00       0    77.7
 257    2:20   58.3    37    0.5    60      2.6   999.0    0.00       0    77.7
 257    2:30   55.8    47    1.0    46      1.7   999.0    0.00       0    77.7
 257    2:40   55.1    46    2.3   326      3.0   999.0    0.00       0    77.6
 257    2:50   56.8    40    1.7   348      2.8   999.0    0.00       0    77.6
 257    3:00   56.9    40    0.8    54      2.5   999.0    0.00       0    77.6
 257    3:10   56.5    40    0.2    52      1.6   999.0    0.00       0    77.5
 257    3:20   55.3    43    0.2    52      1.2   999.0    0.00       0    77.5
 257    3:30   55.8    40    0.2    52      1.2   999.0    0.00       0    77.5
 257    3:40   56.1    39    0.3    52      1.1   999.0    0.00       0    77.4
 257    3:50   56.1    39    1.0    52      1.8   999.0    0.00       0    77.4
 257    4:00   56.1    39    1.8    63      5.8   999.0    0.00       0    77.4
 257    4:10   55.5    40    2.1    67      4.7   999.0    0.00       0    77.3
 257    4:20   55.1    40    0.5    58      2.2   999.0    0.00       0    77.3
 257    4:30   55.0    39    0.9    60      3.3   999.0    0.00       0    77.3
 257    4:40   55.5    36    1.1    51      2.4   999.0    0.00       0    77.2
 257    4:50   54.9    44    0.1    45      1.4   999.0    0.00       0    77.2
 257    5:00   52.8    48    0.0     0      0.0   999.0    0.00       0    77.1
 257    5:10   52.5    51    0.0    43      0.8   999.0    0.00       0    77.1
 257    5:20   52.2    46    0.0     0      0.0   999.0    0.00       1    77.0
 257    5:30   51.9    46    0.2    44      1.7   999.0    0.00       3    77.0
 257    5:40   51.8    47    0.1    44      1.8   999.0    0.00      10    77.0
 257    5:50   53.2    45    0.1    43      1.2   999.0    0.00      35    76.9
 257    6:00   54.1    45    2.0    72      4.0   999.0    0.00      72    76.9
 257    6:10   55.4    40    1.6    75      2.7   999.0    0.00     105    76.8
 257    6:20   57.4    34    0.8    75      1.7   999.0    0.00      89    76.8
 257    6:30   57.9    33    1.5    74      2.3   999.0    0.00     112    76.7
 257    6:40   60.3    32    0.4    74      1.3   999.0    0.00     145    76.7
 257    6:50   62.2    31    0.9    75      1.9   999.0    0.00     173    76.7
 257    7:00   65.4    28    0.0    75      0.5   999.0    0.00     282    76.6
 257    7:10   69.5    24    0.9    74      2.5   999.0    0.00     296    76.6
 257    7:20   69.2    27    1.4    74      2.8   999.0    0.00     333    76.6
 257    7:30   72.8    25    0.7    74      2.8   999.0    0.00     373    76.5
 257    7:40   72.6    28    0.8    60      2.9   999.0    0.00     396    76.5
 257    7:50   73.0    26    1.1    49      2.4   999.0    0.00     452    76.4
 257    8:00   75.3    23    0.5    54      2.2   999.0    0.00     488    76.4
 257    8:10   76.3    21    0.9    87      2.8   999.0    0.00     520    76.4
 257    8:20   76.9    21    0.9    94      2.6   999.0    0.00     383    76.4
 257    8:30   76.3    22    1.8   266      3.3   999.0    0.00     603    76.3
 257    8:40   77.6    21    1.7   243      4.1   999.0    0.00     647    76.3
 257    8:50   78.6    19    1.8   204      3.6   999.0    0.00     621    76.3
 257    9:00   79.1    19    1.3   220      3.6   999.0    0.00     583    76.2
 257    9:10   80.7    19    1.3   216      3.9   999.0    0.00     656    76.2
 257    9:20   81.1    18    1.2   238      4.7   999.0    0.00     729    76.2
 257    9:30   82.3    16    1.2   295      4.5   999.0    0.00     726    76.1
 257    9:40   83.3    15    2.1   144      4.1   999.0    0.00     763    76.1
 257    9:50   82.8    15    2.2   165      4.5   999.0    0.00     773    76.0
 257   10:00   84.2    14    1.1   134      3.9   999.0    0.00     811    76.0
 257   10:10   84.2    16    2.9   302      5.1   999.0    0.00     829    76.0
 257   10:20   84.2    15    2.1   330      5.2   999.0    0.00     841    75.9
 257   10:30   85.2    14    2.5    60      5.9   999.0    0.00     857    75.9
 257   10:40   86.0    13    1.8    68      4.9   999.0    0.00     868    75.9
 257   10:50   85.9    14    2.3     2      5.3   999.0    0.00     880    75.8
 257   11:00   86.7    13    2.4    74      5.8   999.0    0.00     893    75.8
 257   11:10   85.6    14    3.2   306      5.8   999.0    0.00     859    75.8
 257   11:20   86.3    14    2.2   261      8.1   999.0    0.00     905    75.8
 257   11:30   87.0    13    3.6    92      9.0   999.0    0.00     914    75.8
 257   11:40   87.5    13    2.5    85      8.0   999.0    0.00     914    75.8
 257   11:50   87.5    13    6.1    92     11.5   999.0    0.00     921    75.8
 257   12:00   87.7    13    2.9   342      6.5   999.0    0.00     825    75.8
 257   12:10   88.5    13    3.3    42     10.5   999.0    0.00     917    75.8
 257   12:20   88.2    12    7.5   101     13.9   999.0    0.00     922    75.8
 257   12:30   87.7    12    4.7   154     12.9   999.0    0.00     926    75.8
 257   12:40   88.9    12    5.7   103     12.6   999.0    0.00     917    75.9
 257   12:50   88.9    12    7.4   130     16.9   999.0    0.00     856    75.9
 257   13:00   88.4    12    4.1    93      9.2   999.0    0.00     786    75.9
 257   13:10   91.0    12    2.0   347      4.9   999.0    0.00     922    76.0
 257   13:20   92.0    11    5.3   121     11.3   999.0    0.00     886    76.0
 257   13:30   90.4    11    6.2   161     12.1   999.0    0.00     834    76.0
 257   13:40   89.8    12    7.0    82     15.9   999.0    0.00     822    76.1
 257   13:50   89.8    11    4.7    92     11.3   999.0    0.00     616    76.1
 257   14:00   90.0    11    4.1   120     11.6   999.0    0.00     622    76.2
 257   14:10   90.7    11    1.5   121      3.6   999.0    0.00     646    76.2
 257   14:20   91.1    12    2.7   350      6.8   999.0    0.00     537    76.3
 257   14:30   89.4    13    3.2   352      6.2   999.0    0.00     212    76.3
 257   14:40   88.6    13    1.6     8      3.6   999.0    0.00     213    76.4
 257   14:50   88.8    14    1.6   338      3.9   999.0    0.00     513    76.4
 257   15:00   90.7    12    2.2    27      7.0   999.0    0.00     355    76.5
 257   15:10   91.1    12    2.1    31      6.3   999.0    0.00     635    76.6
 257   15:20   91.0    12    3.4    52      7.6   999.0    0.00     349    76.6
 257   15:30   89.7    12    2.8    77      6.4   999.0    0.00     370    76.7
 257   15:40   91.3    13    2.2   344      3.9   999.0    0.00     360    76.8
 257   15:50   89.4    13    2.7   326      6.1   999.0    0.00     267    76.8
 257   16:00   89.7    13    2.3   324      4.8   999.0    0.00     339    76.9
 257   16:10   88.9    13    1.4     9      2.8   999.0    0.00     153    77.0
 257   16:20   87.3    16    1.7   337      4.2   999.0    0.00     118    77.1
 257   16:30   86.3    16    1.7    10      3.7   999.0    0.00     130    77.1
 257   16:40   85.5    18    0.4    11      1.8   999.0    0.00      90    77.2
 257   16:50   85.9    17    0.9    13      4.0   999.0    0.00     214    77.3
 257   17:00   88.1    17    1.1    13      7.0   999.0    0.00     222    77.4
 257   17:10   88.7    15    1.1   349      3.9   999.0    0.00     186    77.4
 257   17:20   89.3    14    1.0   359      2.5   999.0    0.00     136    77.5
 257   17:30   86.7    18    2.8   275      7.4   999.0    0.00      94    77.6

Return to Frey Ranch - Fallon, Nevada graphs page.


Western Regional Climate Center,wrcc@dri.edu